Lawrence Municipal Airport Lawrence US
ICAO: KLWM
IATA: LWM
Category: Medium
Scheduled Services: No

Elevation: 148 ft
TransAlt. 18000 ft.

Airport Communications:
BOSTON APP/DEP:124.4
ASOS:126.75
ATIS:126.75
CLNC DEL:124.3
CTAF:119.25
GND:124.3
BRIDGEPORT RDO:112.5
TWR:119.25
UNICOM:122.8

KLWM Zoom In..

Runways:

(A) RW 05 length 5001 ft width 150 ft
ILS 111.70 / hdg 53

(B) RW 14 length 3900 ft width 100 ft
---- / hdg 137

(C) RW 23 length 5001 ft width 150 ft
---- / hdg 233

(D) RW 32 length 3900 ft width 100 ft
---- / hdg 317

Location; KLWM
Day. 14 / Time. 13.54 Zulu
* Altimeter: 29.94
* Temperature: 25° c. 77°f.
* Wind from: 000° Speed 00 kn.
Dewpoint: 22° c.
Visibility: 10 Statute Miles.
Clouds: Overcast 500 ft.

KLWM 141354Z 00000KT 10SM OVC005 25/22 A2994 RMK AO2 CIG 004V008 SLP136 T02500217


Wind - Calm.

 
 
jpsmedia.com for Web Design worldairports.se 2018   terms of use